sensor_id;sensor_type;location;lat;lon;timestamp;P1;durP1;ratioP1;P2;durP2;ratioP2
38715;SDS011;24833;49.324;8.694;2023-02-28T00:01:31;0.90;;;0.90;;
38715;SDS011;24833;49.324;8.694;2023-02-28T00:03:58;1.05;;;0.90;;
38715;SDS011;24833;49.324;8.694;2023-02-28T00:06:26;1.48;;;1.02;;
38715;SDS011;24833;49.324;8.694;2023-02-28T00:08:53;1.25;;;1.00;;
38715;SDS011;24833;49.324;8.694;2023-02-28T00:11:21;1.20;;;1.10;;
38715;SDS011;24833;49.324;8.694;2023-02-28T00:13:48;1.20;;;1.10;;
38715;SDS011;24833;49.324;8.694;2023-02-28T00:16:19;1.60;;;1.00;;
38715;SDS011;24833;49.324;8.694;2023-02-28T00:18:48;0.82;;;0.82;;
38715;SDS011;24833;49.324;8.694;2023-02-28T00:21:16;0.93;;;0.90;;
38715;SDS011;24833;49.324;8.694;2023-02-28T00:23:46;1.25;;;1.15;;
38715;SDS011;24833;49.324;8.694;2023-02-28T00:26:13;1.20;;;1.05;;
38715;SDS011;24833;49.324;8.694;2023-02-28T00:28:44;1.10;;;1.00;;
38715;SDS011;24833;49.324;8.694;2023-02-28T00:31:11;1.75;;;1.13;;
38715;SDS011;24833;49.324;8.694;2023-02-28T00:33:38;1.48;;;0.98;;
38715;SDS011;24833;49.324;8.694;2023-02-28T00:36:06;2.30;;;1.05;;
38715;SDS011;24833;49.324;8.694;2023-02-28T00:38:36;1.05;;;0.93;;
38715;SDS011;24833;49.324;8.694;2023-02-28T00:41:04;1.10;;;0.90;;
38715;SDS011;24833;49.324;8.694;2023-02-28T00:43:32;1.92;;;1.15;;
38715;SDS011;24833;49.324;8.694;2023-02-28T00:46:01;1.65;;;0.90;;
38715;SDS011;24833;49.324;8.694;2023-02-28T00:48:29;1.15;;;1.05;;
38715;SDS011;24833;49.324;8.694;2023-02-28T00:50:57;2.15;;;1.20;;
38715;SDS011;24833;49.324;8.694;2023-02-28T00:53:24;4.72;;;1.20;;
38715;SDS011;24833;49.324;8.694;2023-02-28T00:55:51;1.25;;;1.15;;
38715;SDS011;24833;49.324;8.694;2023-02-28T00:58:18;1.42;;;1.27;;
38715;SDS011;24833;49.324;8.694;2023-02-28T01:00:45;1.45;;;1.13;;
38715;SDS011;24833;49.324;8.694;2023-02-28T01:03:16;1.27;;;1.05;;
38715;SDS011;24833;49.324;8.694;2023-02-28T01:05:44;1.35;;;1.10;;
38715;SDS011;24833;49.324;8.694;2023-02-28T01:08:12;1.92;;;1.00;;
38715;SDS011;24833;49.324;8.694;2023-02-28T01:10:40;1.33;;;1.20;;
38715;SDS011;24833;49.324;8.694;2023-02-28T01:13:08;1.30;;;1.20;;
38715;SDS011;24833;49.324;8.694;2023-02-28T01:15:36;2.42;;;1.23;;
38715;SDS011;24833;49.324;8.694;2023-02-28T01:18:15;2.55;;;1.40;;
38715;SDS011;24833;49.324;8.694;2023-02-28T01:20:42;1.75;;;1.40;;
38715;SDS011;24833;49.324;8.694;2023-02-28T01:23:09;2.25;;;1.20;;
38715;SDS011;24833;49.324;8.694;2023-02-28T01:25:37;2.05;;;1.27;;
38715;SDS011;24833;49.324;8.694;2023-02-28T01:28:04;1.30;;;1.20;;
38715;SDS011;24833;49.324;8.694;2023-02-28T01:30:33;1.30;;;1.20;;
38715;SDS011;24833;49.324;8.694;2023-02-28T01:33:00;1.10;;;0.95;;
38715;SDS011;24833;49.324;8.694;2023-02-28T01:35:31;2.47;;;1.10;;
38715;SDS011;24833;49.324;8.694;2023-02-28T01:38:02;1.50;;;1.38;;
38715;SDS011;24833;49.324;8.694;2023-02-28T01:40:46;1.30;;;1.10;;
38715;SDS011;24833;49.324;8.694;2023-02-28T01:43:21;1.70;;;1.30;;
38715;SDS011;24833;49.324;8.694;2023-02-28T01:46:15;1.95;;;1.25;;
38715;SDS011;24833;49.324;8.694;2023-02-28T01:48:44;1.20;;;1.10;;
38715;SDS011;24833;49.324;8.694;2023-02-28T01:51:49;1.40;;;1.10;;
38715;SDS011;24833;49.324;8.694;2023-02-28T01:54:20;2.08;;;1.23;;
38715;SDS011;24833;49.324;8.694;2023-02-28T01:56:54;3.47;;;1.20;;
38715;SDS011;24833;49.324;8.694;2023-02-28T01:59:37;1.92;;;1.30;;
38715;SDS011;24833;49.324;8.694;2023-02-28T02:02:13;1.45;;;1.23;;
38715;SDS011;24833;49.324;8.694;2023-02-28T02:07:45;1.23;;;1.10;;
38715;SDS011;24833;49.324;8.694;2023-02-28T02:10:21;2.72;;;1.10;;
38715;SDS011;24833;49.324;8.694;2023-02-28T02:13:05;3.63;;;1.15;;
38715;SDS011;24833;49.324;8.694;2023-02-28T02:18:41;1.52;;;1.20;;
38715;SDS011;24833;49.324;8.694;2023-02-28T02:27:25;1.88;;;1.38;;
38715;SDS011;24833;49.324;8.694;2023-02-28T02:30:43;1.35;;;1.23;;
38715;SDS011;24833;49.324;8.694;2023-02-28T02:37:15;1.42;;;0.95;;
38715;SDS011;24833;49.324;8.694;2023-02-28T02:40:10;1.27;;;1.17;;
38715;SDS011;24833;49.324;8.694;2023-02-28T02:42:59;2.30;;;1.33;;
38715;SDS011;24833;49.324;8.694;2023-02-28T02:45:44;1.92;;;1.50;;
38715;SDS011;24833;49.324;8.694;2023-02-28T02:48:26;2.03;;;1.40;;
38715;SDS011;24833;49.324;8.694;2023-02-28T02:50:58;1.27;;;1.00;;
38715;SDS011;24833;49.324;8.694;2023-02-28T02:53:35;2.05;;;1.27;;
38715;SDS011;24833;49.324;8.694;2023-02-28T02:56:27;1.88;;;1.50;;
38715;SDS011;24833;49.324;8.694;2023-02-28T03:01:29;1.63;;;1.38;;
38715;SDS011;24833;49.324;8.694;2023-02-28T03:04:02;1.98;;;1.40;;
38715;SDS011;24833;49.324;8.694;2023-02-28T03:06:36;1.60;;;1.50;;
38715;SDS011;24833;49.324;8.694;2023-02-28T03:09:04;1.45;;;1.35;;
38715;SDS011;24833;49.324;8.694;2023-02-28T03:11:31;2.20;;;1.38;;
38715;SDS011;24833;49.324;8.694;2023-02-28T03:14:04;2.25;;;1.60;;
38715;SDS011;24833;49.324;8.694;2023-02-28T03:23:07;1.38;;;1.15;;
38715;SDS011;24833;49.324;8.694;2023-02-28T03:31:22;1.50;;;1.40;;
38715;SDS011;24833;49.324;8.694;2023-02-28T03:34:03;2.65;;;1.65;;
38715;SDS011;24833;49.324;8.694;2023-02-28T03:36:47;1.73;;;1.60;;
38715;SDS011;24833;49.324;8.694;2023-02-28T03:39:21;2.20;;;1.60;;
38715;SDS011;24833;49.324;8.694;2023-02-28T03:41:58;2.53;;;1.70;;
38715;SDS011;24833;49.324;8.694;2023-02-28T03:47:27;1.90;;;1.67;;
38715;SDS011;24833;49.324;8.694;2023-02-28T03:50:08;1.88;;;1.35;;
38715;SDS011;24833;49.324;8.694;2023-02-28T03:52:55;2.88;;;1.88;;
38715;SDS011;24833;49.324;8.694;2023-02-28T03:55:34;3.47;;;1.60;;
38715;SDS011;24833;49.324;8.694;2023-02-28T03:58:11;2.08;;;1.75;;
38715;SDS011;24833;49.324;8.694;2023-02-28T04:01:14;2.85;;;1.90;;
38715;SDS011;24833;49.324;8.694;2023-02-28T04:04:04;1.70;;;1.38;;
38715;SDS011;24833;49.324;8.694;2023-02-28T04:06:32;1.50;;;1.38;;
38715;SDS011;24833;49.324;8.694;2023-02-28T04:09:01;2.17;;;2.03;;
38715;SDS011;24833;49.324;8.694;2023-02-28T04:11:34;1.70;;;1.60;;
38715;SDS011;24833;49.324;8.694;2023-02-28T04:14:04;2.00;;;1.77;;
38715;SDS011;24833;49.324;8.694;2023-02-28T04:16:34;2.17;;;1.70;;
38715;SDS011;24833;49.324;8.694;2023-02-28T04:19:04;2.13;;;1.70;;
38715;SDS011;24833;49.324;8.694;2023-02-28T04:24:12;3.63;;;1.88;;
38715;SDS011;24833;49.324;8.694;2023-02-28T04:26:43;2.03;;;1.77;;
38715;SDS011;24833;49.324;8.694;2023-02-28T04:29:17;3.10;;;1.90;;
38715;SDS011;24833;49.324;8.694;2023-02-28T04:31:47;2.35;;;1.83;;
38715;SDS011;24833;49.324;8.694;2023-02-28T04:34:14;2.65;;;2.00;;
38715;SDS011;24833;49.324;8.694;2023-02-28T04:36:42;2.63;;;1.90;;
38715;SDS011;24833;49.324;8.694;2023-02-28T04:39:09;2.92;;;1.88;;
38715;SDS011;24833;49.324;8.694;2023-02-28T04:41:37;2.63;;;2.20;;
38715;SDS011;24833;49.324;8.694;2023-02-28T04:44:04;2.42;;;1.85;;
38715;SDS011;24833;49.324;8.694;2023-02-28T04:46:31;1.70;;;1.60;;
38715;SDS011;24833;49.324;8.694;2023-02-28T04:48:58;3.13;;;2.13;;
38715;SDS011;24833;49.324;8.694;2023-02-28T04:51:25;2.65;;;1.80;;
38715;SDS011;24833;49.324;8.694;2023-02-28T04:53:53;2.88;;;2.00;;
38715;SDS011;24833;49.324;8.694;2023-02-28T04:56:20;2.40;;;2.03;;
38715;SDS011;24833;49.324;8.694;2023-02-28T04:58:48;1.98;;;1.58;;
38715;SDS011;24833;49.324;8.694;2023-02-28T05:01:27;2.60;;;1.67;;
38715;SDS011;24833;49.324;8.694;2023-02-28T05:03:57;2.30;;;1.77;;
38715;SDS011;24833;49.324;8.694;2023-02-28T05:06:29;1.92;;;1.58;;
38715;SDS011;24833;49.324;8.694;2023-02-28T05:11:27;2.08;;;1.63;;
38715;SDS011;24833;49.324;8.694;2023-02-28T05:14:01;2.58;;;1.80;;
38715;SDS011;24833;49.324;8.694;2023-02-28T05:16:31;3.60;;;1.67;;
38715;SDS011;24833;49.324;8.694;2023-02-28T05:18:58;2.17;;;1.85;;
38715;SDS011;24833;49.324;8.694;2023-02-28T05:24:00;2.42;;;1.85;;
38715;SDS011;24833;49.324;8.694;2023-02-28T05:26:30;1.70;;;1.48;;
38715;SDS011;24833;49.324;8.694;2023-02-28T05:29:00;2.88;;;2.17;;
38715;SDS011;24833;49.324;8.694;2023-02-28T05:31:27;2.80;;;2.28;;
38715;SDS011;24833;49.324;8.694;2023-02-28T05:33:54;2.10;;;1.90;;
38715;SDS011;24833;49.324;8.694;2023-02-28T05:36:21;2.55;;;1.90;;
38715;SDS011;24833;49.324;8.694;2023-02-28T05:38:49;2.45;;;2.08;;
38715;SDS011;24833;49.324;8.694;2023-02-28T05:41:18;3.22;;;1.92;;
38715;SDS011;24833;49.324;8.694;2023-02-28T05:43:46;2.28;;;1.80;;
38715;SDS011;24833;49.324;8.694;2023-02-28T05:46:14;2.05;;;1.85;;
38715;SDS011;24833;49.324;8.694;2023-02-28T05:48:45;3.03;;;1.98;;
38715;SDS011;24833;49.324;8.694;2023-02-28T05:51:16;2.35;;;2.10;;
38715;SDS011;24833;49.324;8.694;2023-02-28T05:53:43;2.40;;;1.90;;
38715;SDS011;24833;49.324;8.694;2023-02-28T05:56:11;2.70;;;1.88;;
38715;SDS011;24833;49.324;8.694;2023-02-28T05:58:38;3.47;;;2.10;;
38715;SDS011;24833;49.324;8.694;2023-02-28T06:04:02;2.95;;;2.03;;
38715;SDS011;24833;49.324;8.694;2023-02-28T06:06:33;2.63;;;1.90;;
38715;SDS011;24833;49.324;8.694;2023-02-28T06:09:03;2.70;;;1.70;;
38715;SDS011;24833;49.324;8.694;2023-02-28T06:11:31;2.67;;;2.10;;
38715;SDS011;24833;49.324;8.694;2023-02-28T06:13:59;2.30;;;1.90;;
38715;SDS011;24833;49.324;8.694;2023-02-28T06:16:27;3.53;;;2.30;;
38715;SDS011;24833;49.324;8.694;2023-02-28T06:18:56;2.17;;;1.90;;
38715;SDS011;24833;49.324;8.694;2023-02-28T06:21:25;1.98;;;1.77;;
38715;SDS011;24833;49.324;8.694;2023-02-28T06:23:54;2.03;;;1.80;;
38715;SDS011;24833;49.324;8.694;2023-02-28T06:26:23;3.35;;;2.10;;
38715;SDS011;24833;49.324;8.694;2023-02-28T06:28:51;4.65;;;2.20;;
38715;SDS011;24833;49.324;8.694;2023-02-28T06:31:19;2.55;;;2.05;;
38715;SDS011;24833;49.324;8.694;2023-02-28T06:33:47;4.13;;;2.13;;
38715;SDS011;24833;49.324;8.694;2023-02-28T06:36:15;2.63;;;1.80;;
38715;SDS011;24833;49.324;8.694;2023-02-28T06:38:42;2.55;;;1.90;;
38715;SDS011;24833;49.324;8.694;2023-02-28T06:41:10;2.65;;;2.08;;
38715;SDS011;24833;49.324;8.694;2023-02-28T06:43:39;2.65;;;2.28;;
38715;SDS011;24833;49.324;8.694;2023-02-28T06:46:08;5.40;;;2.45;;
38715;SDS011;24833;49.324;8.694;2023-02-28T06:48:40;2.88;;;2.33;;
38715;SDS011;24833;49.324;8.694;2023-02-28T06:51:10;2.95;;;2.10;;
38715;SDS011;24833;49.324;8.694;2023-02-28T06:53:40;2.72;;;2.38;;
38715;SDS011;24833;49.324;8.694;2023-02-28T06:56:10;4.65;;;2.40;;
38715;SDS011;24833;49.324;8.694;2023-02-28T07:01:07;1.95;;;1.80;;
38715;SDS011;24833;49.324;8.694;2023-02-28T07:03:35;2.63;;;2.17;;
38715;SDS011;24833;49.324;8.694;2023-02-28T07:06:02;2.90;;;2.22;;
38715;SDS011;24833;49.324;8.694;2023-02-28T07:08:30;3.63;;;2.40;;
38715;SDS011;24833;49.324;8.694;2023-02-28T07:10:59;3.95;;;2.55;;
38715;SDS011;24833;49.324;8.694;2023-02-28T07:13:26;3.45;;;2.60;;
38715;SDS011;24833;49.324;8.694;2023-02-28T07:16:26;2.53;;;2.17;;
38715;SDS011;24833;49.324;8.694;2023-02-28T07:18:46;5.65;;;3.08;;
38715;SDS011;24833;49.324;8.694;2023-02-28T07:21:14;3.38;;;2.40;;
38715;SDS011;24833;49.324;8.694;2023-02-28T07:23:41;3.47;;;2.50;;
38715;SDS011;24833;49.324;8.694;2023-02-28T07:26:11;2.65;;;2.17;;
38715;SDS011;24833;49.324;8.694;2023-02-28T07:28:42;4.38;;;2.65;;
38715;SDS011;24833;49.324;8.694;2023-02-28T07:31:11;4.43;;;3.00;;
38715;SDS011;24833;49.324;8.694;2023-02-28T07:33:40;3.38;;;2.50;;
38715;SDS011;24833;49.324;8.694;2023-02-28T07:36:09;2.53;;;2.33;;
38715;SDS011;24833;49.324;8.694;2023-02-28T07:38:42;3.08;;;2.40;;
38715;SDS011;24833;49.324;8.694;2023-02-28T07:41:14;4.28;;;2.78;;
38715;SDS011;24833;49.324;8.694;2023-02-28T07:43:43;3.28;;;2.55;;
38715;SDS011;24833;49.324;8.694;2023-02-28T07:46:12;3.70;;;2.60;;
38715;SDS011;24833;49.324;8.694;2023-02-28T07:48:42;3.00;;;2.33;;
38715;SDS011;24833;49.324;8.694;2023-02-28T07:51:10;3.35;;;2.50;;
38715;SDS011;24833;49.324;8.694;2023-02-28T07:53:37;3.63;;;2.85;;
38715;SDS011;24833;49.324;8.694;2023-02-28T07:56:04;3.17;;;2.53;;
38715;SDS011;24833;49.324;8.694;2023-02-28T07:58:32;4.25;;;3.30;;
38715;SDS011;24833;49.324;8.694;2023-02-28T08:01:09;4.65;;;2.80;;
38715;SDS011;24833;49.324;8.694;2023-02-28T08:03:37;3.40;;;2.67;;
38715;SDS011;24833;49.324;8.694;2023-02-28T08:06:05;3.38;;;2.67;;
38715;SDS011;24833;49.324;8.694;2023-02-28T08:08:34;3.80;;;2.97;;
38715;SDS011;24833;49.324;8.694;2023-02-28T08:11:02;3.28;;;2.78;;
38715;SDS011;24833;49.324;8.694;2023-02-28T08:13:30;6.22;;;3.45;;
38715;SDS011;24833;49.324;8.694;2023-02-28T08:15:57;3.55;;;2.90;;
38715;SDS011;24833;49.324;8.694;2023-02-28T08:18:24;4.13;;;3.05;;
38715;SDS011;24833;49.324;8.694;2023-02-28T08:20:51;4.45;;;3.15;;
38715;SDS011;24833;49.324;8.694;2023-02-28T08:23:18;4.50;;;2.85;;
38715;SDS011;24833;49.324;8.694;2023-02-28T08:25:52;3.75;;;3.00;;
38715;SDS011;24833;49.324;8.694;2023-02-28T08:28:21;4.03;;;3.38;;
38715;SDS011;24833;49.324;8.694;2023-02-28T08:30:52;5.13;;;3.53;;
38715;SDS011;24833;49.324;8.694;2023-02-28T08:33:19;3.78;;;2.97;;
38715;SDS011;24833;49.324;8.694;2023-02-28T08:35:47;4.68;;;3.33;;
38715;SDS011;24833;49.324;8.694;2023-02-28T08:38:14;4.40;;;3.13;;
38715;SDS011;24833;49.324;8.694;2023-02-28T08:40:44;4.85;;;3.13;;
38715;SDS011;24833;49.324;8.694;2023-02-28T08:43:11;6.20;;;4.00;;
38715;SDS011;24833;49.324;8.694;2023-02-28T08:45:38;4.07;;;3.00;;
38715;SDS011;24833;49.324;8.694;2023-02-28T08:48:05;4.72;;;3.38;;
38715;SDS011;24833;49.324;8.694;2023-02-28T08:50:32;4.45;;;3.45;;
38715;SDS011;24833;49.324;8.694;2023-02-28T08:52:59;6.18;;;3.72;;
38715;SDS011;24833;49.324;8.694;2023-02-28T08:55:26;4.57;;;3.05;;
38715;SDS011;24833;49.324;8.694;2023-02-28T08:57:53;3.72;;;3.13;;
38715;SDS011;24833;49.324;8.694;2023-02-28T09:00:21;4.75;;;3.47;;
38715;SDS011;24833;49.324;8.694;2023-02-28T09:02:48;5.25;;;3.50;;
38715;SDS011;24833;49.324;8.694;2023-02-28T09:05:15;4.05;;;3.25;;
38715;SDS011;24833;49.324;8.694;2023-02-28T09:07:42;4.97;;;3.30;;
38715;SDS011;24833;49.324;8.694;2023-02-28T09:10:09;4.13;;;3.28;;
38715;SDS011;24833;49.324;8.694;2023-02-28T09:12:37;5.53;;;3.50;;
38715;SDS011;24833;49.324;8.694;2023-02-28T09:15:04;5.10;;;3.40;;
38715;SDS011;24833;49.324;8.694;2023-02-28T09:17:32;4.32;;;3.58;;
38715;SDS011;24833;49.324;8.694;2023-02-28T09:19:59;5.18;;;4.10;;
38715;SDS011;24833;49.324;8.694;2023-02-28T09:22:26;3.90;;;3.50;;
38715;SDS011;24833;49.324;8.694;2023-02-28T09:24:53;5.35;;;3.75;;
38715;SDS011;24833;49.324;8.694;2023-02-28T09:27:20;5.97;;;4.10;;
38715;SDS011;24833;49.324;8.694;2023-02-28T09:29:47;6.60;;;3.90;;
38715;SDS011;24833;49.324;8.694;2023-02-28T09:32:14;4.32;;;3.67;;
38715;SDS011;24833;49.324;8.694;2023-02-28T09:34:41;4.90;;;4.18;;
38715;SDS011;24833;49.324;8.694;2023-02-28T09:37:08;5.00;;;3.53;;
38715;SDS011;24833;49.324;8.694;2023-02-28T09:39:35;5.15;;;3.97;;
38715;SDS011;24833;49.324;8.694;2023-02-28T09:42:02;6.32;;;4.22;;
38715;SDS011;24833;49.324;8.694;2023-02-28T09:44:37;5.45;;;3.90;;
38715;SDS011;24833;49.324;8.694;2023-02-28T09:53:32;4.78;;;3.58;;
38715;SDS011;24833;49.324;8.694;2023-02-28T09:56:08;5.40;;;4.18;;
38715;SDS011;24833;49.324;8.694;2023-02-28T09:59:01;4.97;;;3.97;;
38715;SDS011;24833;49.324;8.694;2023-02-28T10:02:12;6.13;;;3.97;;
38715;SDS011;24833;49.324;8.694;2023-02-28T10:05:03;4.93;;;3.42;;
38715;SDS011;24833;49.324;8.694;2023-02-28T10:10:15;4.95;;;3.88;;
38715;SDS011;24833;49.324;8.694;2023-02-28T10:13:00;5.55;;;4.18;;
38715;SDS011;24833;49.324;8.694;2023-02-28T10:15:32;5.78;;;4.05;;
38715;SDS011;24833;49.324;8.694;2023-02-28T10:18:03;7.40;;;4.47;;
38715;SDS011;24833;49.324;8.694;2023-02-28T10:20:38;4.40;;;3.60;;
38715;SDS011;24833;49.324;8.694;2023-02-28T10:26:05;4.93;;;3.45;;
38715;SDS011;24833;49.324;8.694;2023-02-28T10:28:39;4.60;;;3.63;;
38715;SDS011;24833;49.324;8.694;2023-02-28T10:31:08;5.90;;;3.85;;
38715;SDS011;24833;49.324;8.694;2023-02-28T10:33:46;7.20;;;4.18;;
38715;SDS011;24833;49.324;8.694;2023-02-28T10:36:15;5.30;;;4.00;;
38715;SDS011;24833;49.324;8.694;2023-02-28T10:38:52;6.15;;;4.10;;
38715;SDS011;24833;49.324;8.694;2023-02-28T10:41:28;6.40;;;4.00;;
38715;SDS011;24833;49.324;8.694;2023-02-28T10:44:19;5.28;;;3.70;;
38715;SDS011;24833;49.324;8.694;2023-02-28T10:46:49;4.05;;;3.42;;
38715;SDS011;24833;49.324;8.694;2023-02-28T10:49:20;6.47;;;3.95;;
38715;SDS011;24833;49.324;8.694;2023-02-28T10:51:58;4.60;;;3.55;;
38715;SDS011;24833;49.324;8.694;2023-02-28T10:54:31;6.93;;;3.90;;
38715;SDS011;24833;49.324;8.694;2023-02-28T10:57:11;6.70;;;4.25;;
38715;SDS011;24833;49.324;8.694;2023-02-28T10:59:51;8.18;;;4.38;;
38715;SDS011;24833;49.324;8.694;2023-02-28T11:05:22;5.03;;;3.75;;
38715;SDS011;24833;49.324;8.694;2023-02-28T11:07:55;5.38;;;3.45;;
38715;SDS011;24833;49.324;8.694;2023-02-28T11:10:37;5.50;;;3.80;;
38715;SDS011;24833;49.324;8.694;2023-02-28T11:13:05;5.10;;;3.72;;
38715;SDS011;24833;49.324;8.694;2023-02-28T11:15:32;4.32;;;3.30;;
38715;SDS011;24833;49.324;8.694;2023-02-28T11:18:02;5.85;;;4.35;;
38715;SDS011;24833;49.324;8.694;2023-02-28T11:20:38;4.57;;;4.10;;
38715;SDS011;24833;49.324;8.694;2023-02-28T11:23:06;7.22;;;4.45;;
38715;SDS011;24833;49.324;8.694;2023-02-28T11:25:40;5.03;;;4.30;;
38715;SDS011;24833;49.324;8.694;2023-02-28T11:28:24;4.80;;;4.20;;
38715;SDS011;24833;49.324;8.694;2023-02-28T11:33:45;5.72;;;4.05;;
38715;SDS011;24833;49.324;8.694;2023-02-28T11:36:23;4.65;;;3.85;;
38715;SDS011;24833;49.324;8.694;2023-02-28T11:38:56;5.70;;;4.20;;
38715;SDS011;24833;49.324;8.694;2023-02-28T11:50:14;5.75;;;4.07;;
38715;SDS011;24833;49.324;8.694;2023-02-28T11:52:54;4.78;;;3.95;;
38715;SDS011;24833;49.324;8.694;2023-02-28T11:58:05;4.30;;;3.90;;
38715;SDS011;24833;49.324;8.694;2023-02-28T12:01:21;5.50;;;3.78;;
38715;SDS011;24833;49.324;8.694;2023-02-28T12:04:14;4.20;;;3.67;;
38715;SDS011;24833;49.324;8.694;2023-02-28T12:07:01;5.15;;;4.25;;
38715;SDS011;24833;49.324;8.694;2023-02-28T12:10:00;4.50;;;3.63;;
38715;SDS011;24833;49.324;8.694;2023-02-28T12:21:18;5.13;;;4.05;;
38715;SDS011;24833;49.324;8.694;2023-02-28T12:26:49;5.05;;;4.15;;
38715;SDS011;24833;49.324;8.694;2023-02-28T12:29:28;5.15;;;4.00;;
38715;SDS011;24833;49.324;8.694;2023-02-28T12:32:20;4.68;;;4.00;;
38715;SDS011;24833;49.324;8.694;2023-02-28T12:37:59;4.30;;;2.85;;
38715;SDS011;24833;49.324;8.694;2023-02-28T12:40:55;4.75;;;3.65;;
38715;SDS011;24833;49.324;8.694;2023-02-28T12:43:34;4.72;;;3.67;;
38715;SDS011;24833;49.324;8.694;2023-02-28T12:46:10;6.55;;;4.88;;
38715;SDS011;24833;49.324;8.694;2023-02-28T12:48:50;5.25;;;4.47;;
38715;SDS011;24833;49.324;8.694;2023-02-28T12:51:24;6.28;;;4.22;;
38715;SDS011;24833;49.324;8.694;2023-02-28T12:59:49;5.82;;;4.47;;
38715;SDS011;24833;49.324;8.694;2023-02-28T13:05:29;6.03;;;4.93;;
38715;SDS011;24833;49.324;8.694;2023-02-28T13:14:19;5.63;;;4.32;;
38715;SDS011;24833;49.324;8.694;2023-02-28T13:22:35;4.60;;;4.03;;
38715;SDS011;24833;49.324;8.694;2023-02-28T13:28:11;4.32;;;3.83;;
38715;SDS011;24833;49.324;8.694;2023-02-28T13:31:03;5.40;;;4.35;;
38715;SDS011;24833;49.324;8.694;2023-02-28T13:33:33;4.75;;;3.88;;
38715;SDS011;24833;49.324;8.694;2023-02-28T13:38:48;5.35;;;4.20;;
38715;SDS011;24833;49.324;8.694;2023-02-28T13:41:40;5.00;;;3.85;;
38715;SDS011;24833;49.324;8.694;2023-02-28T14:08:46;4.95;;;4.10;;
38715;SDS011;24833;49.324;8.694;2023-02-28T14:11:25;4.30;;;3.92;;
38715;SDS011;24833;49.324;8.694;2023-02-28T14:13:59;5.63;;;4.32;;
38715;SDS011;24833;49.324;8.694;2023-02-28T14:16:28;4.60;;;4.18;;
38715;SDS011;24833;49.324;8.694;2023-02-28T14:28:12;5.22;;;4.18;;
38715;SDS011;24833;49.324;8.694;2023-02-28T14:31:13;6.95;;;4.03;;
38715;SDS011;24833;49.324;8.694;2023-02-28T14:36:58;4.95;;;3.95;;
38715;SDS011;24833;49.324;8.694;2023-02-28T14:39:28;4.38;;;3.70;;
38715;SDS011;24833;49.324;8.694;2023-02-28T14:41:57;5.53;;;3.65;;
38715;SDS011;24833;49.324;8.694;2023-02-28T14:44:29;6.15;;;3.60;;
38715;SDS011;24833;49.324;8.694;2023-02-28T14:46:57;5.85;;;4.03;;
38715;SDS011;24833;49.324;8.694;2023-02-28T14:49:36;4.72;;;4.13;;
38715;SDS011;24833;49.324;8.694;2023-02-28T14:52:14;4.93;;;4.20;;
38715;SDS011;24833;49.324;8.694;2023-02-28T14:57:30;4.80;;;3.78;;
38715;SDS011;24833;49.324;8.694;2023-02-28T15:02:43;5.05;;;3.85;;
38715;SDS011;24833;49.324;8.694;2023-02-28T15:07:46;6.78;;;4.45;;
38715;SDS011;24833;49.324;8.694;2023-02-28T15:10:23;5.32;;;4.00;;
38715;SDS011;24833;49.324;8.694;2023-02-28T15:12:53;5.45;;;4.60;;
38715;SDS011;24833;49.324;8.694;2023-02-28T15:21:11;5.72;;;4.07;;
38715;SDS011;24833;49.324;8.694;2023-02-28T15:23:45;5.28;;;4.28;;
38715;SDS011;24833;49.324;8.694;2023-02-28T15:26:21;6.82;;;4.63;;
38715;SDS011;24833;49.324;8.694;2023-02-28T15:28:58;4.93;;;4.28;;
38715;SDS011;24833;49.324;8.694;2023-02-28T15:31:40;5.70;;;4.22;;
38715;SDS011;24833;49.324;8.694;2023-02-28T15:34:36;4.78;;;4.05;;
38715;SDS011;24833;49.324;8.694;2023-02-28T15:42:42;4.10;;;3.22;;
38715;SDS011;24833;49.324;8.694;2023-02-28T15:45:28;5.63;;;4.28;;
38715;SDS011;24833;49.324;8.694;2023-02-28T15:48:05;4.78;;;4.30;;
38715;SDS011;24833;49.324;8.694;2023-02-28T15:53:41;4.35;;;3.92;;
38715;SDS011;24833;49.324;8.694;2023-02-28T15:58:54;5.13;;;4.05;;
38715;SDS011;24833;49.324;8.694;2023-02-28T16:01:30;4.88;;;4.13;;
38715;SDS011;24833;49.324;8.694;2023-02-28T16:04:04;6.22;;;4.00;;
38715;SDS011;24833;49.324;8.694;2023-02-28T16:09:09;4.15;;;3.75;;
38715;SDS011;24833;49.324;8.694;2023-02-28T16:11:49;6.03;;;4.25;;
38715;SDS011;24833;49.324;8.694;2023-02-28T16:14:20;4.65;;;4.00;;
38715;SDS011;24833;49.324;8.694;2023-02-28T16:16:57;4.25;;;3.85;;
38715;SDS011;24833;49.324;8.694;2023-02-28T16:19:38;6.90;;;4.22;;
38715;SDS011;24833;49.324;8.694;2023-02-28T16:22:05;6.10;;;4.55;;
38715;SDS011;24833;49.324;8.694;2023-02-28T16:24:34;4.35;;;3.95;;
38715;SDS011;24833;49.324;8.694;2023-02-28T16:27:01;5.10;;;4.53;;
38715;SDS011;24833;49.324;8.694;2023-02-28T16:29:29;6.80;;;4.60;;
38715;SDS011;24833;49.324;8.694;2023-02-28T16:32:01;5.18;;;4.60;;
38715;SDS011;24833;49.324;8.694;2023-02-28T16:34:32;5.20;;;3.83;;
38715;SDS011;24833;49.324;8.694;2023-02-28T16:36:59;5.60;;;4.18;;
38715;SDS011;24833;49.324;8.694;2023-02-28T16:39:26;6.53;;;4.28;;
38715;SDS011;24833;49.324;8.694;2023-02-28T16:41:53;5.60;;;4.30;;
38715;SDS011;24833;49.324;8.694;2023-02-28T16:44:27;5.05;;;4.32;;
38715;SDS011;24833;49.324;8.694;2023-02-28T16:46:59;5.45;;;4.20;;
38715;SDS011;24833;49.324;8.694;2023-02-28T16:49:27;5.35;;;4.03;;
38715;SDS011;24833;49.324;8.694;2023-02-28T16:51:54;5.32;;;3.97;;
38715;SDS011;24833;49.324;8.694;2023-02-28T16:54:22;4.57;;;3.55;;
38715;SDS011;24833;49.324;8.694;2023-02-28T16:56:49;5.40;;;4.40;;
38715;SDS011;24833;49.324;8.694;2023-02-28T16:59:18;4.13;;;3.50;;
38715;SDS011;24833;49.324;8.694;2023-02-28T17:01:51;5.63;;;4.22;;
38715;SDS011;24833;49.324;8.694;2023-02-28T17:04:18;4.95;;;4.22;;
38715;SDS011;24833;49.324;8.694;2023-02-28T17:06:45;5.13;;;4.25;;
38715;SDS011;24833;49.324;8.694;2023-02-28T17:09:20;5.35;;;4.47;;
38715;SDS011;24833;49.324;8.694;2023-02-28T17:11:56;4.88;;;4.00;;
38715;SDS011;24833;49.324;8.694;2023-02-28T17:14:23;5.75;;;4.00;;
38715;SDS011;24833;49.324;8.694;2023-02-28T17:16:50;5.85;;;4.43;;
38715;SDS011;24833;49.324;8.694;2023-02-28T17:19:17;5.38;;;3.78;;
38715;SDS011;24833;49.324;8.694;2023-02-28T17:21:44;5.40;;;4.65;;
38715;SDS011;24833;49.324;8.694;2023-02-28T17:24:12;6.35;;;5.13;;
38715;SDS011;24833;49.324;8.694;2023-02-28T17:26:44;5.63;;;4.28;;
38715;SDS011;24833;49.324;8.694;2023-02-28T17:29:18;6.25;;;4.55;;
38715;SDS011;24833;49.324;8.694;2023-02-28T17:31:47;7.57;;;5.40;;
38715;SDS011;24833;49.324;8.694;2023-02-28T17:34:14;6.30;;;4.75;;
38715;SDS011;24833;49.324;8.694;2023-02-28T17:39:14;6.63;;;4.57;;
38715;SDS011;24833;49.324;8.694;2023-02-28T17:41:51;6.40;;;4.35;;
38715;SDS011;24833;49.324;8.694;2023-02-28T17:44:19;5.25;;;4.18;;
38715;SDS011;24833;49.324;8.694;2023-02-28T17:46:48;4.50;;;3.75;;
38715;SDS011;24833;49.324;8.694;2023-02-28T17:49:16;6.07;;;4.03;;
38715;SDS011;24833;49.324;8.694;2023-02-28T17:51:44;6.50;;;4.30;;
38715;SDS011;24833;49.324;8.694;2023-02-28T17:54:11;4.63;;;3.72;;
38715;SDS011;24833;49.324;8.694;2023-02-28T17:56:40;6.75;;;3.92;;
38715;SDS011;24833;49.324;8.694;2023-02-28T17:59:09;5.97;;;4.18;;
38715;SDS011;24833;49.324;8.694;2023-02-28T18:01:37;4.85;;;3.85;;
38715;SDS011;24833;49.324;8.694;2023-02-28T18:04:05;5.47;;;3.63;;
38715;SDS011;24833;49.324;8.694;2023-02-28T18:06:39;5.30;;;3.88;;
38715;SDS011;24833;49.324;8.694;2023-02-28T18:09:13;6.53;;;4.32;;
38715;SDS011;24833;49.324;8.694;2023-02-28T18:11:42;5.38;;;4.05;;
38715;SDS011;24833;49.324;8.694;2023-02-28T18:14:14;4.32;;;3.45;;
38715;SDS011;24833;49.324;8.694;2023-02-28T18:16:43;5.10;;;3.67;;
38715;SDS011;24833;49.324;8.694;2023-02-28T18:19:13;7.10;;;3.80;;
38715;SDS011;24833;49.324;8.694;2023-02-28T18:21:41;4.93;;;3.88;;
38715;SDS011;24833;49.324;8.694;2023-02-28T18:24:18;5.43;;;3.90;;